Home > Products > Valid Products > TAF

000
FTUS42 KCAE 040200 AAA
TAFAGS
TAF AMD
KAGS 040252Z 0403/0424 09004KT 1/2SM FG OVC003
     FM040500 16003KT 1/4SM -DZ FG VV002 WS020/21035KT
     FM041400 23010KT 5SM BR BKN012
     FM041600 24015G25KT P6SM SCT020 BKN045=



000
FTUS42 KCAE 040200 AAA
TAFDNL
TAF AMD
KDNL 040252Z 0403/0424 11004KT 1/2SM FG VV002
     FM040500 16004KT 1/4SM -DZ FG VV001 WS020/21035KT
     FM041400 23010KT 5SM BR BKN012
     FM041600 24012G20KT P6SM SCT020 BKN045=



000
FTUS42 KCAE 040200 AAA
TAFCUB
TAF AMD
KCUB 040252Z 0403/0424 00000KT 5SM BR OVC003
      TEMPO 0404/0406 1/2SM FG
     FM040600 VRB03KT 1/4SM -DZ FG OVC001 WS020/21035KT
     FM041500 23010KT 5SM BR BKN012
     FM041700 23013G23KT P6SM SCT015 BKN045=



000
FTUS42 KCAE 040200 AAA
TAFOGB
TAF AMD
KOGB 040252Z 0403/0424 VRB03KT 3SM BR OVC003
      TEMPO 0404/0406 1/2SM FG
     FM040600 VRB03KT 1/4SM -DZ FG OVC002 WS020/21035KT
     FM041400 23010KT 5SM BR BKN012
     FM041700 24015G25KT P6SM SCT015 BKN045=



000
FTUS42 KCAE 040200 AAA
TAFCAE
TAF AMD
KCAE 040252Z 0403/0424 VRB03KT 1 1/2SM BR OVC003
      TEMPO 0404/0406 1/2SM FG
     FM040600 19004KT 1/4SM -DZ FG OVC001 WS020/21035KT
     FM041500 23010KT 5SM BR BKN012
     FM041700 23015G25KT P6SM SCT015 BKN045=



000
FTUS42 KCAE 032300
TAFDNL
TAF
KDNL 032334Z 0400/0424 VRB03KT 4SM BR OVC003
      TEMPO 0402/0405 1SM BR
     FM040500 17004KT 1/2SM -DZ FG OVC001 WS020/21035KT
     FM041400 23010KT 5SM BR BKN012
     FM041600 24012G20KT P6SM SCT015 BKN045=



000
FTUS42 KCAE 032300
TAFAGS
TAF
KAGS 032334Z 0400/0424 VRB03KT 4SM BR OVC004
      TEMPO 0402/0405 1SM BR
     FM040500 18003KT 1/2SM -DZ FG OVC001 WS020/21035KT
     FM041400 23010KT 5SM BR BKN012
     FM041600 24015G25KT P6SM SCT015 BKN045=



000
FTUS42 KCAE 032300
TAFOGB
TAF
KOGB 032334Z 0400/0424 05006KT 2SM BR OVC003
      TEMPO 0402/0405 1SM BR
     FM040500 VRB03KT 1/2SM -DZ FG OVC002 WS020/21035KT
     FM041400 23010KT 5SM BR BKN012
     FM041600 24015G25KT P6SM SCT015 BKN045=



000
FTUS42 KCAE 032300
TAFCUB
TAF
KCUB 032334Z 0400/0424 VRB03KT 6SM BR OVC004
      TEMPO 0402/0405 1 1/2SM BR
     FM040500 VRB03KT 1SM -DZ BR OVC003 WS020/21035KT
     FM040700 VRB03KT 1/2SM -DZ FG OVC001 WS020/21035KT
     FM041500 23010KT 5SM BR BKN012
     FM041700 23013G23KT P6SM SCT015 BKN045=



000
FTUS42 KCAE 032300
TAFCAE
TAF
KCAE 032334Z 0400/0424 07004KT 4SM BR OVC004
      TEMPO 0402/0405 1 1/2SM BR
     FM040500 VRB03KT 1SM -DZ BR OVC003 WS020/21035KT
     FM040700 19004KT 1/2SM -DZ FG OVC001 WS020/21035KT
     FM041500 23010KT 5SM BR BKN012
     FM041700 23015G25KT P6SM SCT015 BKN045=



000
FTUS42 KCAE 032300
TAFOGB
TAF
KOGB 032334Z 0400/0424 05006KT 2SM BR OVC003
      TEMPO 0402/0405 1SM BR
     FM040500 VRB03KT 1/2SM -DZ FG OVC002 WS020/21035KT
     FM041400 23010KT 5SM BR BKN012
     FM041600 24015G25KT P6SM SCT015 BKN045=



000
FTUS42 KCAE 032300
TAFCAE
TAF
KCAE 032334Z 0400/0424 07004KT 4SM BR OVC004
      TEMPO 0402/0405 1 1/2SM BR
     FM040500 VRB03KT 1SM -DZ BR OVC003 WS020/21035KT
     FM040700 19004KT 1/2SM -DZ FG OVC001 WS020/21035KT
     FM041500 23010KT 5SM BR BKN012
     FM041700 23015G25KT P6SM SCT015 BKN045=



000
FTUS42 KCAE 032300
TAFCUB
TAF
KCUB 032334Z 0400/0424 VRB03KT 6SM BR OVC004
      TEMPO 0402/0405 1 1/2SM BR
     FM040500 VRB03KT 1SM -DZ BR OVC003 WS020/21035KT
     FM040700 VRB03KT 1/2SM -DZ FG OVC001 WS020/21035KT
     FM041500 23010KT 5SM BR BKN012
     FM041700 23013G23KT P6SM SCT015 BKN045=



000
FTUS42 KCAE 032300
TAFAGS
TAF
KAGS 032334Z 0400/0424 VRB03KT 4SM BR OVC004
      TEMPO 0402/0405 1SM BR
     FM040500 18003KT 1/2SM -DZ FG OVC001 WS020/21035KT
     FM041400 23010KT 5SM BR BKN012
     FM041600 24015G25KT P6SM SCT015 BKN045=



000
FTUS42 KCAE 032300
TAFDNL
TAF
KDNL 032334Z 0400/0424 VRB03KT 4SM BR OVC003
      TEMPO 0402/0405 1SM BR
     FM040500 17004KT 1/2SM -DZ FG OVC001 WS020/21035KT
     FM041400 23010KT 5SM BR BKN012
     FM041600 24012G20KT P6SM SCT015 BKN045=



000
FTUS42 KCAE 032000 AAA
TAFCUB
TAF AMD
KCUB 032045Z 0321/0418 VRB03KT 3SM -DZ BR OVC005
     FM040500 VRB03KT 1SM -DZ BR OVC003 WS020/21035KT
     FM040700 21006KT 1/2SM -DZ FG OVC001 WS020/21035KT
     FM041400 23010KT 5SM BR BKN012
     FM041600 23012KT P6SM SCT015=



000
FTUS42 KCAE 032000 AAA
TAFAGS
TAF AMD
KAGS 032045Z 0321/0418 07005KT 2SM BR OVC005
     FM040500 16004KT 1SM -DZ BR OVC003 WS020/21035KT
     FM040700 21006KT 1/2SM -DZ FG OVC001 WS020/21035KT
     FM041400 23010KT 5SM BR BKN012
     FM041600 23012KT P6SM SCT015=



000
FTUS42 KCAE 032000 AAA
TAFOGB
TAF AMD
KOGB 032045Z 0321/0418 07005KT 4SM BR OVC004
     FM040500 18005KT 1SM -DZ BR OVC003 WS020/21035KT
     FM040700 21006KT 3/4SM -DZ BR OVC002 WS020/21035KT
     FM041400 23010KT 5SM BR BKN012
     FM041600 23012KT P6SM SCT015=



000
FTUS42 KCAE 032000 AAA
TAFDNL
TAF AMD
KDNL 032045Z 0321/0418 08006KT 2SM BR OVC004
     FM040500 16004KT 1SM -DZ BR OVC003 WS020/21035KT
     FM040700 21006KT 1/2SM -DZ FG OVC001 WS020/21035KT
     FM041400 23010KT 5SM BR BKN012
     FM041600 23012KT P6SM SCT015=



000
FTUS42 KCAE 032000 AAA
TAFCAE
TAF AMD
KCAE 032045Z 0321/0418 05005KT 3SM -DZ BR OVC005
     FM040500 VRB03KT 1SM -DZ BR OVC003 WS020/21035KT
     FM040700 19005KT 1/2SM -DZ FG OVC001 WS020/21035KT
     FM041400 23010KT 5SM BR BKN012
     FM041600 23012KT P6SM SCT015=



000
FTUS42 KCAE 031700
TAFOGB
TAF
KOGB 031736Z 0318/0418 08006KT 2SM -DZ OVC005
      TEMPO 0318/0321 2SM -RADZ BR
     FM040500 18005KT 1SM -DZ BR OVC003 WS020/21035KT
     FM040700 21006KT 3/4SM -DZ BR OVC002 WS020/21035KT
     FM041400 23010KT 5SM BR BKN012
     FM041600 23012KT P6SM SCT015=



000
FTUS42 KCAE 031700
TAFAGS
TAF
KAGS 031736Z 0318/0418 09005KT 2SM -DZ OVC005
      TEMPO 0318/0321 2SM -RADZ BR
     FM040500 16004KT 1SM -DZ BR OVC003 WS020/21035KT
     FM040700 21006KT 1/2SM -DZ FG OVC001 WS020/21035KT
     FM041400 23010KT 5SM BR BKN012
     FM041600 23012KT P6SM SCT015=



000
FTUS42 KCAE 031700
TAFCUB
TAF
KCUB 031736Z 0318/0418 07005KT 2SM -DZ OVC005
      TEMPO 0318/0321 2SM -RADZ BR
     FM040500 VRB03KT 1SM -DZ BR OVC003 WS020/21035KT
     FM040700 21006KT 1/2SM -DZ FG OVC001 WS020/21035KT
     FM041400 23010KT 5SM BR BKN012
     FM041600 23012KT P6SM SCT015=



000
FTUS42 KCAE 031700
TAFAGS
TAF
KAGS 031736Z 0318/0418 09005KT 2SM -DZ OVC005
      TEMPO 0318/0321 2SM -RADZ BR
     FM040500 16004KT 1SM -DZ BR OVC003 WS020/21035KT
     FM040700 21006KT 1/2SM -DZ FG OVC001 WS020/21035KT
     FM041400 23010KT 5SM BR BKN012
     FM041600 23012KT P6SM SCT015=



000
FTUS42 KCAE 031700
TAFCUB
TAF
KCUB 031736Z 0318/0418 07005KT 2SM -DZ OVC005
      TEMPO 0318/0321 2SM -RADZ BR
     FM040500 VRB03KT 1SM -DZ BR OVC003 WS020/21035KT
     FM040700 21006KT 1/2SM -DZ FG OVC001 WS020/21035KT
     FM041400 23010KT 5SM BR BKN012
     FM041600 23012KT P6SM SCT015=



000
FTUS42 KCAE 031700
TAFDNL
TAF
KDNL 031736Z 0318/0418 10005KT 2SM -DZ OVC005
      TEMPO 0318/0321 2SM -RADZ BR
     FM040500 16004KT 1SM -DZ BR OVC003 WS020/21035KT
     FM040700 21006KT 1/2SM -DZ FG OVC001 WS020/21035KT
     FM041400 23010KT 5SM BR BKN012
     FM041600 23012KT P6SM SCT015=



000
FTUS42 KCAE 031700
TAFCAE
TAF
KCAE 031736Z 0318/0418 07007KT 2SM -DZ OVC005
      TEMPO 0318/0321 2SM -RADZ BR
     FM040500 VRB03KT 1SM -DZ BR OVC003 WS020/21035KT
     FM040700 19005KT 1/2SM -DZ FG OVC001 WS020/21035KT
     FM041400 23010KT 5SM BR BKN012
     FM041600 23012KT P6SM SCT015=



000
FTUS42 KCAE 031700
TAFOGB
TAF
KOGB 031736Z 0318/0418 08006KT 2SM -DZ OVC005
      TEMPO 0318/0321 2SM -RADZ BR
     FM040500 18005KT 1SM -DZ BR OVC003 WS020/21035KT
     FM040700 21006KT 3/4SM -DZ BR OVC002 WS020/21035KT
     FM041400 23010KT 5SM BR BKN012
     FM041600 23012KT P6SM SCT015=



000
FTUS42 KCAE 031700
TAFDNL
TAF
KDNL 031736Z 0318/0418 10005KT 2SM -DZ OVC005
      TEMPO 0318/0321 2SM -RADZ BR
     FM040500 16004KT 1SM -DZ BR OVC003 WS020/21035KT
     FM040700 21006KT 1/2SM -DZ FG OVC001 WS020/21035KT
     FM041400 23010KT 5SM BR BKN012
     FM041600 23012KT P6SM SCT015=



000
FTUS42 KCAE 031700
TAFCAE
TAF
KCAE 031736Z 0318/0418 07007KT 2SM -DZ OVC005
      TEMPO 0318/0321 2SM -RADZ BR
     FM040500 VRB03KT 1SM -DZ BR OVC003 WS020/21035KT
     FM040700 19005KT 1/2SM -DZ FG OVC001 WS020/21035KT
     FM041400 23010KT 5SM BR BKN012
     FM041600 23012KT P6SM SCT015=



000
FTUS42 KCAE 031600 AAB
TAFDNL
TAF AMD
KDNL 031640Z 0317/0412 11005KT 2SM -RADZ BR OVC004
     FM032300 10005KT 5SM BR OVC008 WS020/18030KT
     FM040500 16004KT 1SM BR OVC003 WS020/21035KT=



000
FTUS42 KCAE 031600 AAA
TAFCAE
TAF AMD
KCAE 031640Z 0317/0412 08006KT 2SM -RADZ BR OVC005
     FM040500 19006KT 1SM BR OVC003 WS020/21035KT=



000
FTUS42 KCAE 031600 AAB
TAFAGS
TAF AMD
KAGS 031640Z 0317/0412 11005KT 2SM -RADZ BR OVC004
     FM032300 10005KT 5SM BR OVC008 WS020/18030KT
     FM040500 16004KT 1SM BR OVC003 WS020/21035KT=



000
FTUS42 KCAE 031600 AAB
TAFOGB
TAF AMD
KOGB 031640Z 0317/0412 09006KT 2SM -RADZ BR OVC006
     FM032300 10005KT 5SM BR OVC008 WS020/18030KT
     FM040500 18005KT 1SM BR OVC003 WS020/21035KT=



000
FTUS42 KCAE 031600 AAB
TAFCUB
TAF AMD
KCUB 031640Z 0317/0412 06004KT 2SM -RADZ BR OVC006
     FM040500 19004KT 1SM BR OVC003 WS020/21035KT=



000
FTUS42 KCAE 031300 AAA
TAFCUB
TAF AMD
KCUB 031311Z 0313/0412 08005KT 2SM -DZ BR VCSH OVC006
     FM031500 08006KT 2SM -RADZ BR OVC006 WS020/19028KT
     FM040500 19004KT 1SM BR OVC003 WS020/21035KT=



000
FTUS42 KCAE 031300 AAA
TAFCAE
TAF AMD
KCAE 031311Z 0313/0412 08006KT 2SM -DZ BR VCSH OVC005
     FM031500 08006KT 2SM -RADZ BR OVC005 WS020/19028KT
     FM040500 19006KT 1SM BR OVC003 WS020/21035KT=



000
FTUS42 KCAE 031300 AAA
TAFOGB
TAF AMD
KOGB 031311Z 0313/0412 08005KT 2SM -DZ BR VCSH OVC006
     FM031500 09006KT 2SM -RADZ BR OVC006 WS020/16028KT
     FM032300 10005KT 5SM BR OVC015 WS020/18030KT
     FM040500 18005KT 1SM BR OVC003 WS020/21035KT=



000
FTUS42 KCAE 031300 AAA
TAFAGS
TAF AMD
KAGS 031311Z 0313/0412 11006KT 3SM -DZ BR VCSH OVC005
     FM031500 11005KT 2SM -RADZ BR OVC005 WS020/16028KT
     FM032300 10005KT 5SM BR OVC015 WS020/18030KT
     FM040500 16004KT 1SM BR OVC003 WS020/21035KT=



000
FTUS42 KCAE 031300 AAA
TAFDNL
TAF AMD
KDNL 031311Z 0313/0412 11006KT 2SM -DZ BR VCSH OVC005
     FM031500 11005KT 2SM -RADZ BR OVC005 WS020/16028KT
     FM032300 10005KT 5SM BR OVC015 WS020/18030KT
     FM040500 16004KT 1SM BR OVC003 WS020/21035KT=



000
FTUS42 KCAE 031100
TAFCUB
TAF
KCUB 031136Z 0312/0412 VRB03KT P6SM VCSH OVC007
     FM031500 VRB03KT 2SM -RADZ BR OVC006 WS020/19028KT
     FM040500 19004KT 1SM BR OVC003 WS020/21035KT=



000
FTUS42 KCAE 031100
TAFOGB
TAF
KOGB 031136Z 0312/0412 09006KT 6SM BR VCSH OVC008
     FM031500 07006KT 2SM -RADZ BR OVC006 WS020/16028KT
     FM032300 10005KT 5SM BR OVC015 WS020/18030KT
     FM040500 18005KT 1SM BR OVC003 WS020/21035KT=



000
FTUS42 KCAE 031100
TAFCAE
TAF
KCAE 031136Z 0312/0412 07006KT 4SM BR VCSH OVC008
     FM031500 07006KT 2SM -RADZ BR OVC006 WS020/19028KT
     FM040500 19006KT 1SM BR OVC003 WS020/21035KT=



000
FTUS42 KCAE 031100
TAFAGS
TAF
KAGS 031136Z 0312/0412 09006KT 6SM BR VCSH OVC012
     FM031500 08005KT 2SM -RADZ BR OVC006 WS020/16028KT
     FM032300 10005KT 5SM BR OVC015 WS020/18030KT
     FM040500 16004KT 1SM BR OVC003 WS020/21035KT=



000
FTUS42 KCAE 031100
TAFOGB
TAF
KOGB 031136Z 0312/0412 09006KT 6SM BR VCSH OVC008
     FM031500 07006KT 2SM -RADZ BR OVC006 WS020/16028KT
     FM032300 10005KT 5SM BR OVC015 WS020/18030KT
     FM040500 18005KT 1SM BR OVC003 WS020/21035KT=



000
FTUS42 KCAE 031100
TAFCUB
TAF
KCUB 031136Z 0312/0412 VRB03KT P6SM VCSH OVC007
     FM031500 VRB03KT 2SM -RADZ BR OVC006 WS020/19028KT
     FM040500 19004KT 1SM BR OVC003 WS020/21035KT=



000
FTUS42 KCAE 031100
TAFDNL
TAF
KDNL 031136Z 0312/0412 09006KT 6SM BR VCSH OVC008
     FM031500 08005KT 2SM -RADZ BR OVC006 WS020/16028KT
     FM032300 10005KT 5SM BR OVC015 WS020/18030KT
     FM040500 16004KT 1SM BR OVC003 WS020/21035KT=



000
FTUS42 KCAE 031100
TAFAGS
TAF
KAGS 031136Z 0312/0412 09006KT 6SM BR VCSH OVC012
     FM031500 08005KT 2SM -RADZ BR OVC006 WS020/16028KT
     FM032300 10005KT 5SM BR OVC015 WS020/18030KT
     FM040500 16004KT 1SM BR OVC003 WS020/21035KT=



000
FTUS42 KCAE 031100
TAFCAE
TAF
KCAE 031136Z 0312/0412 07006KT 4SM BR VCSH OVC008
     FM031500 07006KT 2SM -RADZ BR OVC006 WS020/19028KT
     FM040500 19006KT 1SM BR OVC003 WS020/21035KT=



000
FTUS42 KCAE 031100
TAFDNL
TAF
KDNL 031136Z 0312/0412 09006KT 6SM BR VCSH OVC008
     FM031500 08005KT 2SM -RADZ BR OVC006 WS020/16028KT
     FM032300 10005KT 5SM BR OVC015 WS020/18030KT
     FM040500 16004KT 1SM BR OVC003 WS020/21035KT=



000
FTUS42 KCAE 030900 AAA
TAFAGS
TAF AMD
KAGS 030902Z 0309/0406 VRB03KT P6SM SCT008 OVC015
     FM031200 VRB03KT P6SM VCSH OVC007 WS020/16028KT
     FM031500 08005KT 4SM -RA BR OVC006 WS020/16028KT
     FM040100 16004KT 1SM BR OVC003 WS020/21035KT=



000
FTUS42 KCAE 030900 AAA
TAFOGB
TAF AMD
KOGB 030902Z 0309/0406 09006KT P6SM SCT008 OVC015
     FM031200 07006KT P6SM VCSH OVC007 WS020/16028KT
     FM031500 07006KT 4SM -RA BR OVC006 WS020/16028KT
     FM032300 VRB03KT 4SM BR OVC015
     FM040200 16004KT 1SM BR OVC003 WS020/21035KT=



000
FTUS42 KCAE 030900 AAA
TAFDNL
TAF AMD
KDNL 030902Z 0309/0406 08006KT P6SM SCT008 OVC015
     FM031200 07006KT P6SM OVC007 WS020/16028KT
     FM031500 07006KT 4SM -RA BR OVC006 WS020/16028KT
     FM040100 16004KT 1SM BR OVC003 WS020/21035KT=



000
FTUS42 KCAE 030900 AAA
TAFCUB
TAF AMD
KCUB 030902Z 0309/0406 VRB03KT P6SM SCT008 OVC015
     FM031200 VRB03KT P6SM VCSH OVC007 WS020/16028KT
     FM031500 VRB03KT 4SM -RA BR OVC006 WS020/19028KT
     FM040100 00000KT 2SM BR OVC003 WS020/21035KT=



000
FTUS42 KCAE 030900 AAA
TAFCAE
TAF AMD
KCAE 030902Z 0309/0406 07006KT P6SM SCT008 OVC015
     FM031200 07006KT P6SM VCSH OVC007 WS020/16028KT
     FM031500 07006KT 4SM -RA BR OVC006 WS020/19028KT
     FM040100 VRB03KT 2SM BR OVC003 WS020/21035KT=



000
FTUS42 KCAE 030500
TAFOGB
TAF
KOGB 030539Z 0306/0406 09005KT P6SM OVC050
     FM030900 08006KT P6SM SCT008 OVC015
     FM031200 07006KT 4SM -RA BR OVC007 WS020/16028KT
     FM031500 07006KT 2SM -RA BR OVC006 WS020/16028KT
     FM032300 VRB03KT 4SM BR OVC015
     FM040200 16004KT 1SM BR OVC003 WS020/21035KT=



000
FTUS42 KCAE 030500
TAFDNL
TAF
KDNL 030539Z 0306/0406 09006KT P6SM OVC040
     FM030900 08006KT P6SM SCT008 OVC015
     FM031200 07006KT 4SM -RA BR OVC007 WS020/16028KT
     FM031500 07006KT 2SM -RA BR OVC006 WS020/16028KT
     FM040100 16004KT 1SM BR OVC003 WS020/21035KT=



000
FTUS42 KCAE 030500
TAFAGS
TAF
KAGS 030539Z 0306/0406 00000KT P6SM OVC040
     FM030900 00000KT P6SM SCT008 OVC015
     FM031200 VRB03KT 4SM -RA BR OVC007 WS020/16028KT
     FM031500 08005KT 2SM -RA BR OVC006 WS020/16028KT
     FM040100 16004KT 1SM BR OVC003 WS020/21035KT=



000
FTUS42 KCAE 030500
TAFOGB
TAF
KOGB 030539Z 0306/0406 09005KT P6SM OVC050
     FM030900 08006KT P6SM SCT008 OVC015
     FM031200 07006KT 4SM -RA BR OVC007 WS020/16028KT
     FM031500 07006KT 2SM -RA BR OVC006 WS020/16028KT
     FM032300 VRB03KT 4SM BR OVC015
     FM040200 16004KT 1SM BR OVC003 WS020/21035KT=



000
FTUS42 KCAE 030500
TAFCUB
TAF
KCUB 030539Z 0306/0406 00000KT P6SM OVC035
     FM030800 VRB03KT P6SM SCT008 OVC015
     FM031100 VRB03KT 4SM -RA BR OVC007 WS020/16028KT
     FM031500 VRB03KT 2SM -RA BR OVC006 WS020/19028KT
     FM040100 00000KT 2SM BR OVC003 WS020/21035KT=



000
FTUS42 KCAE 030500
TAFCUB
TAF
KCUB 030539Z 0306/0406 00000KT P6SM OVC035
     FM030800 VRB03KT P6SM SCT008 OVC015
     FM031100 VRB03KT 4SM -RA BR OVC007 WS020/16028KT
     FM031500 VRB03KT 2SM -RA BR OVC006 WS020/19028KT
     FM040100 00000KT 2SM BR OVC003 WS020/21035KT=



000
FTUS42 KCAE 030500
TAFCAE
TAF
KCAE 030539Z 0306/0406 09006KT P6SM OVC035
     FM030800 07006KT P6SM SCT008 OVC015
     FM031100 07006KT 4SM -RA BR OVC007 WS020/16028KT
     FM031500 07006KT 2SM -RA BR OVC006 WS020/19028KT
     FM040100 VRB03KT 2SM BR OVC003 WS020/21035KT=



000
FTUS42 KCAE 030500
TAFDNL
TAF
KDNL 030539Z 0306/0406 09006KT P6SM OVC040
     FM030900 08006KT P6SM SCT008 OVC015
     FM031200 07006KT 4SM -RA BR OVC007 WS020/16028KT
     FM031500 07006KT 2SM -RA BR OVC006 WS020/16028KT
     FM040100 16004KT 1SM BR OVC003 WS020/21035KT=



000
FTUS42 KCAE 030500
TAFCAE
TAF
KCAE 030539Z 0306/0406 09006KT P6SM OVC035
     FM030800 07006KT P6SM SCT008 OVC015
     FM031100 07006KT 4SM -RA BR OVC007 WS020/16028KT
     FM031500 07006KT 2SM -RA BR OVC006 WS020/19028KT
     FM040100 VRB03KT 2SM BR OVC003 WS020/21035KT=



000
FTUS42 KCAE 030500
TAFAGS
TAF
KAGS 030539Z 0306/0406 00000KT P6SM OVC040
     FM030900 00000KT P6SM SCT008 OVC015
     FM031200 VRB03KT 4SM -RA BR OVC007 WS020/16028KT
     FM031500 08005KT 2SM -RA BR OVC006 WS020/16028KT
     FM040100 16004KT 1SM BR OVC003 WS020/21035KT=



000
FTUS42 KCAE 030300 AAB
TAFCAE
TAF AMD
KCAE 030305Z 0303/0324 08005KT P6SM SCT020 OVC040
     FM030600 07006KT P6SM SCT010 OVC020
     FM031200 07006KT 3SM -RA BR OVC007 WS020/16028KT=



000
FTUS42 KCAE 030300 AAB
TAFCUB
TAF AMD
KCUB 030305Z 0303/0324 08004KT P6SM SCT020 OVC040
     FM030600 06005KT P6SM SCT010 OVC020
     FM031200 07005KT 3SM -RA BR OVC007 WS020/16028KT=



000
FTUS42 KCAE 030300 AAA
TAFDNL
TAF AMD
KDNL 030305Z 0303/0324 07005KT P6SM SCT020 OVC040
     FM030500 07006KT P6SM SCT010 OVC020
     FM031200 07006KT 3SM -RA BR OVC007 WS020/18024KT=



000
FTUS42 KCAE 030300 AAA
TAFAGS
TAF AMD
KAGS 030305Z 0303/0324 07005KT P6SM SCT020 OVC040
     FM030500 07006KT P6SM SCT010 OVC020
     FM031200 07006KT 3SM -RA BR OVC007 WS020/18024KT=



000
FTUS42 KCAE 030300 AAB
TAFCAE
TAF AMD
KCAE 030305Z 0303/0324 08005KT P6SM SCT020 OVC040
     FM030600 07006KT P6SM SCT010 OVC020
     FM031200 07006KT 3SM -RA BR OVC007 WS020/16028KT=



000
FTUS42 KCAE 030300 AAB
TAFOGB
TAF AMD
KOGB 030305Z 0303/0324 08005KT P6SM SCT020 OVC040
     FM030500 06007KT P6SM SCT010 OVC020
     FM031100 07007KT 3SM -RA BR OVC007 WS020/17026KT=



000
FTUS42 KCAE 030300 AAB
TAFCUB
TAF AMD
KCUB 030305Z 0303/0324 08004KT P6SM SCT020 OVC040
     FM030600 06005KT P6SM SCT010 OVC020
     FM031200 07005KT 3SM -RA BR OVC007 WS020/16028KT=



000
FTUS42 KCAE 030300 AAA
TAFDNL
TAF AMD
KDNL 030305Z 0303/0324 07005KT P6SM SCT020 OVC040
     FM030500 07006KT P6SM SCT010 OVC020
     FM031200 07006KT 3SM -RA BR OVC007 WS020/18024KT=



000
FTUS42 KCAE 030300 AAB
TAFOGB
TAF AMD
KOGB 030305Z 0303/0324 08005KT P6SM SCT020 OVC040
     FM030500 06007KT P6SM SCT010 OVC020
     FM031100 07007KT 3SM -RA BR OVC007 WS020/17026KT=



000
FTUS42 KCAE 030300 AAA
TAFAGS
TAF AMD
KAGS 030305Z 0303/0324 07005KT P6SM SCT020 OVC040
     FM030500 07006KT P6SM SCT010 OVC020
     FM031200 07006KT 3SM -RA BR OVC007 WS020/18024KT=



000
FTUS42 KCAE 030200 AAA
TAFOGB
TAF AMD
KOGB 030225Z 0302/0324 06005KT P6SM BKN040
     FM030400 06007KT P6SM OVC015
     FM031000 07007KT 3SM -RA BR OVC007 WS020/17026KT=



000
FTUS42 KCAE 030200 AAA
TAFOGB
TAF AMD
KOGB 030225Z 0302/0324 06005KT P6SM BKN040
     FM030400 06007KT P6SM OVC015
     FM031000 07007KT 3SM -RA BR OVC007 WS020/17026KT=



000
FTUS42 KCAE 030200 AAA
TAFCUB
TAF AMD
KCUB 030225Z 0302/0324 06004KT P6SM BKN040
     FM030400 06005KT P6SM OVC015
     FM031000 07005KT 3SM -RA BR OVC007 WS020/16028KT=



000
FTUS42 KCAE 030200 AAA
TAFCAE
TAF AMD
KCAE 030224Z 0302/0324 06005KT P6SM BKN040
     FM030400 06006KT P6SM OVC015
     FM031000 07006KT 3SM -RA BR OVC007 WS020/16028KT=



000
FTUS42 KCAE 022300
TAFCUB
TAF
KCUB 022326Z 0300/0324 04004KT P6SM BKN050
     FM030300 06005KT P6SM OVC015
     FM031000 07005KT 3SM -RA BR OVC007 WS020/16028KT=



000
FTUS42 KCAE 022300
TAFOGB
TAF
KOGB 022326Z 0300/0324 04005KT P6SM BKN050
     FM030300 06007KT P6SM OVC015
     FM031000 07007KT 3SM -RA BR OVC007 WS020/17026KT=



000
FTUS42 KCAE 022300
TAFCAE
TAF
KCAE 022326Z 0300/0324 04005KT P6SM BKN050
     FM030300 06006KT P6SM OVC015
     FM031000 07006KT 3SM -RA BR OVC007 WS020/16028KT=



000
FTUS42 KCAE 022300
TAFDNL
TAF
KDNL 022326Z 0300/0324 04004KT P6SM BKN050
     FM030300 06006KT P6SM OVC015
     FM031000 07006KT 3SM -RA BR OVC007 WS020/18024KT=



000
FTUS42 KCAE 022300
TAFAGS
TAF
KAGS 022326Z 0300/0324 30004KT P6SM BKN050
     FM030400 06006KT P6SM OVC015
     FM031000 07006KT 3SM -RA BR OVC007 WS020/18024KT=



000
FTUS42 KCAE 022200 AAE
TAFCUB
TAF AMD
KCUB 022206Z 0222/0318 33004KT P6SM SCT040
     FM022300 04006KT P6SM BKN050
     FM030300 06005KT P6SM OVC015
     FM030900 07005KT 5SM -RA OVC007 WS020/16028KT=



000
FTUS42 KCAE 022200 AAC
TAFAGS
TAF AMD
KAGS 022206Z 0222/0318 29006KT P6SM SCT040
     FM022300 04008KT P6SM BKN050
     FM030300 06007KT P6SM OVC015
     FM030900 07007KT 5SM -RA OVC007 WS020/18024KT=



000
FTUS42 KCAE 022200 AAA
TAFCAE
TAF AMD
KCAE 022206Z 0222/0318 33006KT P6SM SCT040
     FM022300 04008KT P6SM BKN050
     FM030300 06007KT P6SM OVC015
     FM030900 07007KT 5SM -RA OVC007 WS020/16028KT=



000
FTUS42 KCAE 022200 AAC
TAFDNL
TAF AMD
KDNL 022206Z 0222/0318 29006KT P6SM SCT040
     FM022300 04008KT P6SM BKN050
     FM030300 06007KT P6SM OVC015
     FM030900 07007KT 5SM -RA OVC007 WS020/18024KT=



000
FTUS42 KCAE 022200 AAC
TAFOGB
TAF AMD
KOGB 022206Z 0222/0318 31005KT P6SM SCT040
     FM022300 04008KT P6SM BKN050
     FM030300 06007KT P6SM OVC015
     FM030900 07007KT 5SM -RA OVC007 WS020/17026KT=



000
FTUS42 KCAE 022000 AAB
TAFAGS
TAF AMD
KAGS 022043Z 0221/0318 29006KT P6SM SCT040
     FM022300 04008KT P6SM BKN050
     FM030300 06007KT P6SM OVC015
     FM030900 07007KT 5SM -RA OVC007=



000
FTUS42 KCAE 022000 AAB
TAFAGS
TAF AMD
KAGS 022043Z 0221/0318 29006KT P6SM SCT040
     FM022300 04008KT P6SM BKN050
     FM030300 06007KT P6SM OVC015
     FM030900 07007KT 5SM -RA OVC007=



000
FTUS42 KCAE 022000 AAB
TAFDNL
TAF AMD
KDNL 022043Z 0221/0318 29006KT P6SM SCT040
     FM022300 04008KT P6SM BKN050
     FM030300 06007KT P6SM OVC015
     FM030900 07007KT 5SM -RA OVC007=



000
FTUS42 KCAE 022000 AAB
TAFDNL
TAF AMD
KDNL 022043Z 0221/0318 29006KT P6SM SCT040
     FM022300 04008KT P6SM BKN050
     FM030300 06007KT P6SM OVC015
     FM030900 07007KT 5SM -RA OVC007=



000
FTUS42 KCAE 022000 AAB
TAFOGB
TAF AMD
KOGB 022042Z 0221/0318 31005KT P6SM SCT040
     FM022300 04008KT P6SM BKN050
     FM030300 06007KT P6SM OVC015
     FM030900 07007KT 5SM -RA OVC007=



000
FTUS42 KCAE 022000 AAB
TAFOGB
TAF AMD
KOGB 022042Z 0221/0318 31005KT P6SM SCT040
     FM022300 04008KT P6SM BKN050
     FM030300 06007KT P6SM OVC015
     FM030900 07007KT 5SM -RA OVC007=



000
FTUS42 KCAE 022000 AAD
TAFCUB
TAF AMD
KCUB 022041Z 0221/0318 33004KT P6SM SCT040
     FM022300 04006KT P6SM BKN050
     FM030300 06005KT P6SM OVC015
     FM030900 07005KT 5SM -RA OVC007=



000
FTUS42 KCAE 022000 AAD
TAFCUB
TAF AMD
KCUB 022041Z 0221/0318 33004KT P6SM SCT040
     FM022300 04006KT P6SM BKN050
     FM030300 06005KT P6SM OVC015
     FM030900 07005KT 5SM -RA OVC007=



000
FTUS42 KCAE 022000 AAD
TAFCAE
TAF AMD
KCAE 022040Z 0221/0318 33006KT P6SM SCT040
     FM022300 04008KT P6SM BKN050
     FM030300 06007KT P6SM OVC015
     FM030900 07007KT 5SM -RA OVC007=



000
FTUS42 KCAE 022000 AAD
TAFCAE
TAF AMD
KCAE 022040Z 0221/0318 33006KT P6SM SCT040
     FM022300 04008KT P6SM BKN050
     FM030300 06007KT P6SM OVC015
     FM030900 07007KT 5SM -RA OVC007=



000
FTUS42 KCAE 021800 AAC
TAFCAE
TAF AMD
KCAE 021857Z 0219/0318 33006KT P6SM SCT150
     FM022300 04008KT P6SM BKN050
     FM030300 06007KT P6SM OVC015
     FM030900 07008KT 6SM -RA BKN007 OVC015
     FM031400 07006KT 4SM -RA BR OVC007=



000
FTUS42 KCAE 021800 AAC
TAFCUB
TAF AMD
KCUB 021857Z 0219/0318 33006KT P6SM SCT150
     FM022300 04008KT P6SM BKN050
     FM030300 06007KT P6SM OVC015
     FM030900 07008KT 6SM -RA BKN007 OVC015
     FM031400 07006KT 4SM -RA BR OVC007=



000
FTUS42 KCAE 021800 AAC
TAFCAE
TAF AMD
KCAE 021857Z 0219/0318 33006KT P6SM SCT150
     FM022300 04008KT P6SM BKN050
     FM030300 06007KT P6SM OVC015
     FM030900 07008KT 6SM -RA BKN007 OVC015
     FM031400 07006KT 4SM -RA BR OVC007=



000
FTUS42 KCAE 021800 AAC
TAFCUB
TAF AMD
KCUB 021857Z 0219/0318 33006KT P6SM SCT150
     FM022300 04008KT P6SM BKN050
     FM030300 06007KT P6SM OVC015
     FM030900 07008KT 6SM -RA BKN007 OVC015
     FM031400 07006KT 4SM -RA BR OVC007=



000
FTUS42 KCAE 021800 AAA
TAFAGS
TAF AMD
KAGS 021856Z 0219/0318 27005KT P6SM SCT150
     FM022300 03006KT P6SM BKN050
     FM030200 07006KT P6SM OVC015
     FM030800 07006KT 6SM -RA OVC007
     FM031400 07006KT 4SM -RA BR OVC007=



000
FTUS42 KCAE 021800 AAA
TAFOGB
TAF AMD
KOGB 021856Z 0219/0318 24006KT P6SM SCT035
     FM022300 31008KT P6SM BKN050
     FM030300 06009KT P6SM OVC015
     FM030900 07011KT 6SM -RA BKN007 OVC015
     FM031400 07006KT 4SM -RA BR OVC007=



000
FTUS42 KCAE 021800 AAA
TAFDNL
TAF AMD
KDNL 021856Z 0219/0318 27005KT P6SM SCT150
     FM022300 03006KT P6SM BKN050
     FM030200 07006KT P6SM OVC015
     FM030800 07006KT 6SM -RA OVC007
     FM031400 07006KT 4SM -RA BR OVC007=



000
FTUS42 KCAE 021800 AAA
TAFDNL
TAF AMD
KDNL 021856Z 0219/0318 27005KT P6SM SCT150
     FM022300 03006KT P6SM BKN050
     FM030200 07006KT P6SM OVC015
     FM030800 07006KT 6SM -RA OVC007
     FM031400 07006KT 4SM -RA BR OVC007=



000
FTUS42 KCAE 021800 AAA
TAFAGS
TAF AMD
KAGS 021856Z 0219/0318 27005KT P6SM SCT150
     FM022300 03006KT P6SM BKN050
     FM030200 07006KT P6SM OVC015
     FM030800 07006KT 6SM -RA OVC007
     FM031400 07006KT 4SM -RA BR OVC007=



000
FTUS42 KCAE 021800 AAA
TAFOGB
TAF AMD
KOGB 021856Z 0219/0318 24006KT P6SM SCT035
     FM022300 31008KT P6SM BKN050
     FM030300 06009KT P6SM OVC015
     FM030900 07011KT 6SM -RA BKN007 OVC015
     FM031400 07006KT 4SM -RA BR OVC007=



000
FTUS42 KCAE 021800 AAB
TAFCAE
TAF AMD
KCAE 021830Z 0219/0318 33006KT P6SM FEW040 SCT150
     FM022200 04008KT P6SM BKN050
     FM030300 06007KT P6SM OVC015
     FM030900 07008KT 6SM -RA BKN007 OVC015
     FM031400 07006KT 4SM -RA BR OVC007=



000
FTUS42 KCAE 021800 AAB
TAFCUB
TAF AMD
KCUB 021830Z 0219/0318 33006KT P6SM FEW040 SCT150
     FM022200 04008KT P6SM BKN050
     FM030300 06007KT P6SM OVC015
     FM030900 07008KT 6SM -RA BKN007 OVC015
     FM031400 07006KT 4SM -RA BR OVC007=



000
FTUS42 KCAE 021800 AAB
TAFCUB
TAF AMD
KCUB 021830Z 0219/0318 33006KT P6SM FEW040 SCT150
     FM022200 04008KT P6SM BKN050
     FM030300 06007KT P6SM OVC015
     FM030900 07008KT 6SM -RA BKN007 OVC015
     FM031400 07006KT 4SM -RA BR OVC007=



000
FTUS42 KCAE 021800 AAB
TAFCAE
TAF AMD
KCAE 021830Z 0219/0318 33006KT P6SM FEW040 SCT150
     FM022200 04008KT P6SM BKN050
     FM030300 06007KT P6SM OVC015
     FM030900 07008KT 6SM -RA BKN007 OVC015
     FM031400 07006KT 4SM -RA BR OVC007=



000
FTUS42 KCAE 021800 AAA
TAFCAE
TAF AMD
KCAE 021828Z 0218/0318 33006KT P6SM FEW040 SCT150
     FM022100 04008KT P6SM BKN050
     FM030300 06007KT P6SM OVC015
     FM030900 07008KT 6SM -RA BKN007 OVC015
     FM031400 07006KT 4SM -RA BR OVC007=



000
FTUS42 KCAE 021800 AAA
TAFCUB
TAF AMD
KCUB 021828Z 0218/0318 33006KT P6SM FEW040 SCT150
     FM022100 04008KT P6SM BKN050
     FM030300 06007KT P6SM OVC015
     FM030900 07008KT 6SM -RA BKN007 OVC015
     FM031400 07006KT 4SM -RA BR OVC007=



000
FTUS42 KCAE 021800 AAA
TAFCUB
TAF AMD
KCUB 021828Z 0218/0318 33006KT P6SM FEW040 SCT150
     FM022100 04008KT P6SM BKN050
     FM030300 06007KT P6SM OVC015
     FM030900 07008KT 6SM -RA BKN007 OVC015
     FM031400 07006KT 4SM -RA BR OVC007=



000
FTUS42 KCAE 021800 AAA
TAFCAE
TAF AMD
KCAE 021828Z 0218/0318 33006KT P6SM FEW040 SCT150
     FM022100 04008KT P6SM BKN050
     FM030300 06007KT P6SM OVC015
     FM030900 07008KT 6SM -RA BKN007 OVC015
     FM031400 07006KT 4SM -RA BR OVC007=



000
FTUS42 KCAE 021700
TAFCAE
TAF
KCAE 021720Z 0218/0318 24006KT P6SM SCT040 BKN150
     FM022100 04008KT P6SM BKN050
     FM030300 06007KT P6SM OVC015
     FM030900 07008KT 6SM -RA BKN007 OVC015
     FM031400 07006KT 4SM -RA BR OVC007=



000
FTUS42 KCAE 021700
TAFAGS
TAF
KAGS 021720Z 0218/0318 22005KT P6SM SCT035 BKN150
     FM022200 03006KT P6SM BKN050
     FM030100 07006KT P6SM OVC015
     FM030800 07006KT 6SM -RA OVC007
     FM031400 07006KT 4SM -RA BR OVC007=



000
FTUS42 KCAE 021700
TAFOGB
TAF
KOGB 021720Z 0218/0318 24006KT P6SM BKN035
     FM022100 31008KT P6SM BKN050
     FM030300 06009KT P6SM OVC015
     FM030900 07011KT 6SM -RA BKN007 OVC015
     FM031400 07006KT 4SM -RA BR OVC007=



000
FTUS42 KCAE 021700
TAFCUB
TAF
KCUB 021720Z 0218/0318 24006KT P6SM SCT040 BKN150
     FM022100 04008KT P6SM BKN050
     FM030300 06007KT P6SM OVC015
     FM030900 07008KT 6SM -RA BKN007 OVC015
     FM031400 07006KT 4SM -RA BR OVC007=



000
FTUS42 KCAE 021700
TAFDNL
TAF
KDNL 021720Z 0218/0318 22005KT P6SM SCT035 BKN150
     FM022200 03006KT P6SM BKN050
     FM030100 07006KT P6SM OVC015
     FM030800 07006KT 6SM -RA OVC007
     FM031400 07006KT 4SM -RA BR OVC007=



000
FTUS42 KCAE 021600 AAC
TAFOGB
TAF AMD
KOGB 021622Z 0216/0312 25006KT P6SM BKN035
     FM022100 31008KT P6SM BKN050
     FM030300 06009KT P6SM OVC015
     FM030900 07011KT 6SM -RA BR BKN007 OVC015=



000
FTUS42 KCAE 021600 AAC
TAFOGB
TAF AMD
KOGB 021622Z 0216/0312 25006KT P6SM BKN035
     FM022100 31008KT P6SM BKN050
     FM030300 06009KT P6SM OVC015
     FM030900 07011KT 6SM -RA BR BKN007 OVC015=



000
FTUS42 KCAE 021500 AAD
TAFCUB
TAF AMD
KCUB 021543Z 0216/0312 26006KT P6SM SCT015 BKN150
     FM021700 29005KT P6SM BKN025
     FM022100 04004KT P6SM BKN050
     FM030300 06006KT P6SM OVC015
     FM030900 07006KT 6SM -RA BR BKN007 OVC015=



000
FTUS42 KCAE 021500 AAD
TAFCUB
TAF AMD
KCUB 021543Z 0216/0312 26006KT P6SM SCT015 BKN150
     FM021700 29005KT P6SM BKN025
     FM022100 04004KT P6SM BKN050
     FM030300 06006KT P6SM OVC015
     FM030900 07006KT 6SM -RA BR BKN007 OVC015=



000
FTUS42 KCAE 021500 AAE
TAFCAE
TAF AMD
KCAE 021523Z 0215/0312 24006KT P6SM SCT040 BKN150
     FM021700 29007KT P6SM BKN050
     FM022100 04008KT P6SM BKN050
     FM030300 06007KT P6SM OVC015
     FM030900 07008KT 6SM -RA BR BKN007 OVC015=



000
FTUS42 KCAE 021500 AAC
TAFDNL
TAF AMD
KDNL 021503Z 0215/0312 29005KT P6SM OVC035
     FM021700 30008KT P6SM BKN040
     FM022200 03006KT P6SM BKN050
     FM030100 07009KT P6SM OVC015
     FM030800 07010KT 5SM -RA BR OVC007=



000
FTUS42 KCAE 021500 AAB
TAFOGB
TAF AMD
KOGB 021503Z 0215/0312 26006KT 3SM BR OVC004
     FM021700 29006KT P6SM BKN025
     FM022100 31008KT P6SM BKN050
     FM030300 06009KT P6SM OVC015
     FM030900 07011KT 6SM -RA BR BKN007 OVC015=



000
FTUS42 KCAE 021500 AAD
TAFCAE
TAF AMD
KCAE 021503Z 0215/0312 24006KT P6SM OVC007
     FM021700 29007KT P6SM BKN025
     FM022100 04008KT P6SM BKN050
     FM030300 06007KT P6SM OVC015
     FM030900 07008KT 6SM -RA BR BKN007 OVC015=



000
FTUS42 KCAE 021500 AAC
TAFCUB
TAF AMD
KCUB 021503Z 0215/0312 26006KT P6SM OVC006
     FM021700 29005KT P6SM BKN025
     FM022100 04004KT P6SM BKN050
     FM030300 06006KT P6SM OVC015
     FM030900 07006KT 6SM -RA BR BKN007 OVC015=



000
FTUS42 KCAE 021500 AAC
TAFDNL
TAF AMD
KDNL 021503Z 0215/0312 29005KT P6SM OVC035
     FM021700 30008KT P6SM BKN040
     FM022200 03006KT P6SM BKN050
     FM030100 07009KT P6SM OVC015
     FM030800 07010KT 5SM -RA BR OVC007=



000
FTUS42 KCAE 021500 AAC
TAFAGS
TAF AMD
KAGS 021503Z 0215/0312 22005KT P6SM OVC035
     FM021700 31008KT P6SM BKN040
     FM022200 03006KT P6SM BKN050
     FM030100 07006KT P6SM OVC015
     FM030800 07008KT 5SM -RA BR OVC007=



000
FTUS42 KCAE 021500 AAC
TAFCUB
TAF AMD
KCUB 021503Z 0215/0312 26006KT P6SM OVC006
     FM021700 29005KT P6SM BKN025
     FM022100 04004KT P6SM BKN050
     FM030300 06006KT P6SM OVC015
     FM030900 07006KT 6SM -RA BR BKN007 OVC015=



000
FTUS42 KCAE 021500 AAB
TAFOGB
TAF AMD
KOGB 021503Z 0215/0312 26006KT 3SM BR OVC004
     FM021700 29006KT P6SM BKN025
     FM022100 31008KT P6SM BKN050
     FM030300 06009KT P6SM OVC015
     FM030900 07011KT 6SM -RA BR BKN007 OVC015=



000
FTUS42 KCAE 021500 AAD
TAFCAE
TAF AMD
KCAE 021503Z 0215/0312 24006KT P6SM OVC007
     FM021700 29007KT P6SM BKN025
     FM022100 04008KT P6SM BKN050
     FM030300 06007KT P6SM OVC015
     FM030900 07008KT 6SM -RA BR BKN007 OVC015=



000
FTUS42 KCAE 021500 AAC
TAFAGS
TAF AMD
KAGS 021503Z 0215/0312 22005KT P6SM OVC035
     FM021700 31008KT P6SM BKN040
     FM022200 03006KT P6SM BKN050
     FM030100 07006KT P6SM OVC015
     FM030800 07008KT 5SM -RA BR OVC007=



000
FTUS42 KCAE 021400 AAC
TAFCAE
TAF AMD
KCAE 021450Z 0215/0312 24006KT P6SM OVC007
     FM021700 29007KT P6SM BKN025
     FM022100 04008KT P6SM BKN050
     FM030300 06007KT P6SM OVC015
     FM030900 07008KT 6SM -RA BR BKN007 OVC015=



000
FTUS42 KCAE 021400 AAC
TAFCAE
TAF AMD
KCAE 021450Z 0215/0312 24006KT P6SM OVC007
     FM021700 29007KT P6SM BKN025
     FM022100 04008KT P6SM BKN050
     FM030300 06007KT P6SM OVC015
     FM030900 07008KT 6SM -RA BR BKN007 OVC015=



000
FTUS42 KCAE 021400 AAB
TAFCUB
TAF AMD
KCUB 021449Z 0215/0312 26006KT P6SM OVC006
     FM021700 29005KT P6SM BKN025
     FM022100 04004KT P6SM BKN050
     FM030300 06006KT P6SM OVC015
     FM030900 07006KT 6SM -RA BR BKN007 OVC015=



000
FTUS42 KCAE 021400 AAB
TAFCUB
TAF AMD
KCUB 021449Z 0215/0312 26006KT P6SM OVC006
     FM021700 29005KT P6SM BKN025
     FM022100 04004KT P6SM BKN050
     FM030300 06006KT P6SM OVC015
     FM030900 07006KT 6SM -RA BR BKN007 OVC015=



000
FTUS42 KCAE 021400 AAB
TAFDNL
TAF AMD
KDNL 021446Z 0215/0312 29005KT P6SM OVC025
     FM021700 30008KT P6SM BKN035
     FM022200 03006KT P6SM BKN050
     FM030100 07009KT P6SM OVC015
     FM030800 07010KT 5SM -RA BR OVC007=



000
FTUS42 KCAE 021400 AAB
TAFDNL
TAF AMD
KDNL 021446Z 0215/0312 29005KT P6SM OVC025
     FM021700 30008KT P6SM BKN035
     FM022200 03006KT P6SM BKN050
     FM030100 07009KT P6SM OVC015
     FM030800 07010KT 5SM -RA BR OVC007=



000
FTUS42 KCAE 021400 AAB
TAFCAE
TAF AMD
KCAE 021426Z 0214/0312 VRB03KT P6SM OVC004
     FM021500 26005KT P6SM OVC008
     FM021700 29005KT P6SM BKN025
     FM022100 04005KT P6SM BKN050
     FM030300 06007KT P6SM OVC015
     FM030900 07008KT 6SM -RA BR BKN007 OVC015=



000
FTUS42 KCAE 021400 AAB
TAFCAE
TAF AMD
KCAE 021426Z 0214/0312 VRB03KT P6SM OVC004
     FM021500 26005KT P6SM OVC008
     FM021700 29005KT P6SM BKN025
     FM022100 04005KT P6SM BKN050
     FM030300 06007KT P6SM OVC015
     FM030900 07008KT 6SM -RA BR BKN007 OVC015=



000
FTUS42 KCAE 021400 AAB
TAFAGS
TAF AMD
KAGS 021425Z 0214/0312 VRB03KT P6SM OVC006
     FM021500 29005KT P6SM OVC008
     FM021700 31008KT P6SM BKN025
     FM022200 03006KT P6SM BKN050
     FM030100 07006KT P6SM OVC015
     FM030800 07008KT 5SM -RA BR OVC007=



000
FTUS42 KCAE 021400 AAB
TAFAGS
TAF AMD
KAGS 021425Z 0214/0312 VRB03KT P6SM OVC006
     FM021500 29005KT P6SM OVC008
     FM021700 31008KT P6SM BKN025
     FM022200 03006KT P6SM BKN050
     FM030100 07006KT P6SM OVC015
     FM030800 07008KT 5SM -RA BR OVC007=



000
FTUS42 KCAE 021400 AAA
TAFOGB
TAF AMD
KOGB 021424Z 0214/0312 VRB04KT 1SM BR OVC002
     FM021500 26006KT 4SM BR OVC005
     FM021700 29006KT P6SM BKN025
     FM022100 31008KT P6SM BKN050
     FM030300 06009KT P6SM OVC015
     FM030900 07011KT 6SM -RA BR BKN007 OVC015=



000
FTUS42 KCAE 021300 CCA
TAFDNL
TAF COR
KDNL 021359Z 0214/0312 29005KT P6SM OVC005
     FM021700 30008KT P6SM BKN025
     FM022200 03006KT P6SM BKN050
     FM030100 07009KT P6SM OVC015
     FM030800 07010KT 5SM -RA BR OVC007=



000
FTUS42 KCAE 021300 AAA
TAFDNL
TAF AMD
KDNL 021358Z 0214/0312 29005KT P6SM OVC008
     FM021700 30008KT P6SM BKN025
     FM022200 03006KT P6SM BKN050
     FM030100 07009KT P6SM OVC015
     FM030800 07010KT 5SM -RA BR OVC007=



000
FTUS42 KCAE 021300 AAA
TAFDNL
TAF AMD
KDNL 021358Z 0214/0312 29005KT P6SM OVC008
     FM021700 30008KT P6SM BKN025
     FM022200 03006KT P6SM BKN050
     FM030100 07009KT P6SM OVC015
     FM030800 07010KT 5SM -RA BR OVC007=



000
FTUS42 KCAE 021300 AAA
TAFCUB
TAF AMD
KCUB 021355Z 0214/0312 VRB03KT 3SM BR OVC003
     FM021500 26005KT 6SM BR OVC008
     FM021700 29005KT P6SM BKN025
     FM022100 04004KT P6SM BKN050
     FM030300 06006KT P6SM OVC015
     FM030900 07006KT 6SM -RA BR BKN007 OVC015=



000
FTUS42 KCAE 021300 AAA
TAFCAE
TAF AMD
KCAE 021341Z 0214/0312 VRB03KT 3SM BR OVC003
     FM021500 26005KT 6SM BR OVC008
     FM021700 29005KT P6SM BKN025
     FM022100 04005KT P6SM BKN050
     FM030300 06007KT P6SM OVC015
     FM030900 07008KT 6SM -RA BR BKN007 OVC015=



000
FTUS42 KCAE 021300 AAA
TAFAGS
TAF AMD
KAGS 021320Z 0213/0312 VRB03KT 4SM BR OVC003
     FM021500 29005KT P6SM OVC008
     FM021700 31008KT P6SM BKN025
     FM022200 03006KT P6SM BKN050
     FM030100 07006KT P6SM OVC015
     FM030800 07008KT 5SM -RA BR OVC007=



000
FTUS42 KCAE 021300 AAA
TAFAGS
TAF AMD
KAGS 021320Z 0213/0312 VRB03KT 4SM BR OVC003
     FM021500 29005KT P6SM OVC008
     FM021700 31008KT P6SM BKN025
     FM022200 03006KT P6SM BKN050
     FM030100 07006KT P6SM OVC015
     FM030800 07008KT 5SM -RA BR OVC007=



000
FTUS42 KCAE 021100
TAFAGS
TAF
KAGS 021134Z 0212/0312 VRB03KT 6SM BR OVC004
     FM021500 29005KT P6SM OVC008
     FM021700 31008KT P6SM BKN025
     FM022200 03006KT P6SM BKN050
     FM030100 07006KT P6SM OVC015
     FM030800 07008KT 5SM -RA BR OVC007=



000
FTUS42 KCAE 021100
TAFCAE
TAF
KCAE 021134Z 0212/0312 VRB03KT 3SM BR OVC003
      TEMPO 0212/0214 1/2SM FG OVC002
     FM021500 26005KT 6SM BR OVC008
     FM021700 29005KT P6SM BKN025
     FM022100 04005KT P6SM BKN050
     FM030300 06007KT P6SM OVC015
     FM030900 07008KT 6SM -RA BR BKN007 OVC015=



000
FTUS42 KCAE 021100
TAFDNL
TAF
KDNL 021134Z 0212/0312 VRB03KT 3SM BR OVC004
      TEMPO 0212/0214 1SM BR OVC002
     FM021500 29005KT P6SM OVC008
     FM021700 30008KT P6SM BKN025
     FM022200 03006KT P6SM BKN050
     FM030100 07009KT P6SM OVC015
     FM030800 07010KT 5SM -RA BR OVC007=



000
FTUS42 KCAE 021100
TAFCUB
TAF
KCUB 021134Z 0212/0312 VRB03KT 2SM BR OVC003
      TEMPO 0212/0214 1SM BR OVC002
     FM021500 26005KT 6SM BR OVC008
     FM021700 29005KT P6SM BKN025
     FM022100 04004KT P6SM BKN050
     FM030300 06006KT P6SM OVC015
     FM030900 07006KT 6SM -RA BR BKN007 OVC015=



000
FTUS42 KCAE 021100
TAFOGB
TAF
KOGB 021134Z 0212/0312 VRB04KT 1/2SM FG OVC002
     FM021500 26006KT 4SM BR OVC005
     FM021700 29006KT P6SM BKN025
     FM022100 31008KT P6SM BKN050
     FM030300 06009KT P6SM OVC015
     FM030900 07011KT 6SM -RA BR BKN007 OVC015=



000
FTUS42 KCAE 021100
TAFCUB
TAF
KCUB 021134Z 0212/0312 VRB03KT 2SM BR OVC003
      TEMPO 0212/0214 1SM BR OVC002
     FM021500 26005KT 6SM BR OVC008
     FM021700 29005KT P6SM BKN025
     FM022100 04004KT P6SM BKN050
     FM030300 06006KT P6SM OVC015
     FM030900 07006KT 6SM -RA BR BKN007 OVC015=



000
FTUS42 KCAE 021100
TAFAGS
TAF
KAGS 021134Z 0212/0312 VRB03KT 6SM BR OVC004
     FM021500 29005KT P6SM OVC008
     FM021700 31008KT P6SM BKN025
     FM022200 03006KT P6SM BKN050
     FM030100 07006KT P6SM OVC015
     FM030800 07008KT 5SM -RA BR OVC007=



000
FTUS42 KCAE 021100
TAFOGB
TAF
KOGB 021134Z 0212/0312 VRB04KT 1/2SM FG OVC002
     FM021500 26006KT 4SM BR OVC005
     FM021700 29006KT P6SM BKN025
     FM022100 31008KT P6SM BKN050
     FM030300 06009KT P6SM OVC015
     FM030900 07011KT 6SM -RA BR BKN007 OVC015=



000
FTUS42 KCAE 021100
TAFCAE
TAF
KCAE 021134Z 0212/0312 VRB03KT 3SM BR OVC003
      TEMPO 0212/0214 1/2SM FG OVC002
     FM021500 26005KT 6SM BR OVC008
     FM021700 29005KT P6SM BKN025
     FM022100 04005KT P6SM BKN050
     FM030300 06007KT P6SM OVC015
     FM030900 07008KT 6SM -RA BR BKN007 OVC015=



000
FTUS42 KCAE 021100
TAFDNL
TAF
KDNL 021134Z 0212/0312 VRB03KT 3SM BR OVC004
      TEMPO 0212/0214 1SM BR OVC002
     FM021500 29005KT P6SM OVC008
     FM021700 30008KT P6SM BKN025
     FM022200 03006KT P6SM BKN050
     FM030100 07009KT P6SM OVC015
     FM030800 07010KT 5SM -RA BR OVC007=



000
FTUS42 KCAE 020800 AAA
TAFCAE
TAF AMD
KCAE 020856Z 0209/0306 VRB03KT 3SM BR OVC003
      TEMPO 0209/0212 3/4SM BR OVC001
     FM021500 28005KT 5SM BR OVC008
     FM021700 29005KT P6SM OVC015
     FM022100 04005KT P6SM BKN025=



000
FTUS42 KCAE 020800 AAA
TAFCUB
TAF AMD
KCUB 020856Z 0209/0306 VRB03KT 1SM BR OVC003
      TEMPO 0209/0212 1/2SM FG OVC001
     FM021500 27005KT 4SM BR OVC005
     FM021700 29005KT P6SM OVC015
     FM022100 VRB05KT P6SM BKN025=



000
FTUS42 KCAE 020800 AAA
TAFAGS
TAF AMD
KAGS 020856Z 0209/0306 VRB03KT 5SM BR OVC004
      TEMPO 0209/0212 1SM BR OVC002
     FM021500 29005KT 6SM BR OVC006
     FM021700 31005KT P6SM OVC015
     FM022100 03006KT P6SM BKN025=



000
FTUS42 KCAE 020800 AAA
TAFOGB
TAF AMD
KOGB 020856Z 0209/0306 VRB03KT 1SM BR OVC003
      TEMPO 0209/0212 1/4SM FG OVC001
     FM021500 26006KT 5SM BR OVC006
     FM021700 29006KT P6SM OVC015
     FM022100 03006KT P6SM BKN025=



000
FTUS42 KCAE 020800 AAA
TAFDNL
TAF AMD
KDNL 020856Z 0209/0306 VRB03KT 3SM BR OVC003
      TEMPO 0209/0212 1/2SM FG OVC001
     FM021500 29005KT 4SM BR OVC004
     FM021700 31005KT P6SM OVC015
     FM022100 02006KT P6SM BKN025=



000
FTUS42 KCAE 020800 AAA
TAFOGB
TAF AMD
KOGB 020856Z 0209/0306 VRB03KT 1SM BR OVC003
      TEMPO 0209/0212 1/4SM FG OVC001
     FM021500 26006KT 5SM BR OVC006
     FM021700 29006KT P6SM OVC015
     FM022100 03006KT P6SM BKN025=



000
FTUS42 KCAE 020800 AAA
TAFCAE
TAF AMD
KCAE 020856Z 0209/0306 VRB03KT 3SM BR OVC003
      TEMPO 0209/0212 3/4SM BR OVC001
     FM021500 28005KT 5SM BR OVC008
     FM021700 29005KT P6SM OVC015
     FM022100 04005KT P6SM BKN025=



000
FTUS42 KCAE 020800 AAA
TAFCUB
TAF AMD
KCUB 020856Z 0209/0306 VRB03KT 1SM BR OVC003
      TEMPO 0209/0212 1/2SM FG OVC001
     FM021500 27005KT 4SM BR OVC005
     FM021700 29005KT P6SM OVC015
     FM022100 VRB05KT P6SM BKN025=



000
FTUS42 KCAE 020800 AAA
TAFAGS
TAF AMD
KAGS 020856Z 0209/0306 VRB03KT 5SM BR OVC004
      TEMPO 0209/0212 1SM BR OVC002
     FM021500 29005KT 6SM BR OVC006
     FM021700 31005KT P6SM OVC015
     FM022100 03006KT P6SM BKN025=



000
FTUS42 KCAE 020800 AAA
TAFDNL
TAF AMD
KDNL 020856Z 0209/0306 VRB03KT 3SM BR OVC003
      TEMPO 0209/0212 1/2SM FG OVC001
     FM021500 29005KT 4SM BR OVC004
     FM021700 31005KT P6SM OVC015
     FM022100 02006KT P6SM BKN025=



000
FTUS42 KCAE 020600 CCA
TAFCUB
TAF COR
KCUB 020623Z 0206/0306 VRB03KT 1SM BR OVC003
      TEMPO 0206/0208 1/2SM FG OVC001
     FM020800 VRB03KT 1/2SM FG OVC001
     FM021500 27005KT 4SM BR OVC005
     FM021700 29005KT P6SM OVC015
     FM022100 VRB05KT P6SM BKN025=



000
FTUS42 KCAE 020600 CCA
TAFCUB
TAF COR
KCUB 020623Z 0206/0306 VRB03KT 1SM BR OVC003
      TEMPO 0206/0208 1/2SM FG OVC001
     FM020800 VRB03KT 1/2SM FG OVC001
     FM021500 27005KT 4SM BR OVC005
     FM021700 29005KT P6SM OVC015
     FM022100 VRB05KT P6SM BKN025=



000
FTUS42 KCAE 020600 CCA
TAFCAE
TAF COR
KCAE 020622Z 0206/0306 VRB04KT 4SM BR OVC004
     FM020700 VRB03KT 2SM BR OVC003
      TEMPO 0208/0212 1/2SM FG OVC001
     FM021500 28005KT 5SM BR OVC008
     FM021700 29005KT P6SM OVC015
     FM022100 04005KT P6SM BKN025=



000
FTUS42 KCAE 020600 CCA
TAFCAE
TAF COR
KCAE 020622Z 0206/0306 VRB04KT 4SM BR OVC004
     FM020700 VRB03KT 2SM BR OVC003
      TEMPO 0208/0212 1/2SM FG OVC001
     FM021500 28005KT 5SM BR OVC008
     FM021700 29005KT P6SM OVC015
     FM022100 04005KT P6SM BKN025=



000
FTUS42 KCAE 020500
TAFOGB
TAF
KOGB 020534Z 0206/0306 VRB03KT 3SM BR OVC003
     FM020800 VRB03KT 1SM BR OVC002
      TEMPO 0208/0212 1/4SM FG OVC001
     FM021500 26006KT 5SM BR OVC006
     FM021700 29006KT P6SM OVC015
     FM022100 03006KT P6SM BKN025=



000
FTUS42 KCAE 020500
TAFAGS
TAF
KAGS 020534Z 0206/0306 VRB04KT 2SM BR OVC004
     FM020800 VRB03KT 1SM BR OVC003
      TEMPO 0208/0212 1/4SM FG OVC001
     FM021500 29005KT 5SM BR OVC006
     FM021700 31005KT P6SM OVC015
     FM022100 03006KT P6SM BKN025=



000
FTUS42 KCAE 020500
TAFDNL
TAF
KDNL 020534Z 0206/0306 VRB05KT 1SM BR OVC002
     FM020800 VRB03KT 1/2SM FG OVC001
     FM021500 29005KT 4SM BR OVC004
     FM021700 31005KT P6SM OVC015
     FM022100 02006KT P6SM BKN025=



000
FTUS42 KCAE 020500
TAFCUB
TAF
KCUB 020534Z 0206/0306 VRB03KT 4SM BR OVC003
     FM020800 00000KT 2SM BR OVC003
      TEMPO 0208/0212 1/2SM FG OVC001
     FM021500 27005KT 5SM BR OVC008
     FM021700 29005KT P6SM OVC015
     FM022100 VRB05KT P6SM BKN025=



000
FTUS42 KCAE 020500
TAFOGB
TAF
KOGB 020534Z 0206/0306 VRB03KT 3SM BR OVC003
     FM020800 VRB03KT 1SM BR OVC002
      TEMPO 0208/0212 1/4SM FG OVC001
     FM021500 26006KT 5SM BR OVC006
     FM021700 29006KT P6SM OVC015
     FM022100 03006KT P6SM BKN025=



000
FTUS42 KCAE 020500
TAFAGS
TAF
KAGS 020534Z 0206/0306 VRB04KT 2SM BR OVC004
     FM020800 VRB03KT 1SM BR OVC003
      TEMPO 0208/0212 1/4SM FG OVC001
     FM021500 29005KT 5SM BR OVC006
     FM021700 31005KT P6SM OVC015
     FM022100 03006KT P6SM BKN025=



000
FTUS42 KCAE 020500
TAFCUB
TAF
KCUB 020534Z 0206/0306 VRB03KT 4SM BR OVC003
     FM020800 00000KT 2SM BR OVC003
      TEMPO 0208/0212 1/2SM FG OVC001
     FM021500 27005KT 5SM BR OVC008
     FM021700 29005KT P6SM OVC015
     FM022100 VRB05KT P6SM BKN025=



000
FTUS42 KCAE 020500
TAFCAE
TAF
KCAE 020534Z 0206/0306 VRB04KT 5SM BR OVC004
     FM020800 VRB03KT 2SM BR OVC003
      TEMPO 0208/0212 1/2SM FG OVC001
     FM021500 28005KT 5SM BR OVC008
     FM021700 29005KT P6SM OVC015
     FM022100 04005KT P6SM BKN025=



000
FTUS42 KCAE 020500
TAFDNL
TAF
KDNL 020534Z 0206/0306 VRB05KT 1SM BR OVC002
     FM020800 VRB03KT 1/2SM FG OVC001
     FM021500 29005KT 4SM BR OVC004
     FM021700 31005KT P6SM OVC015
     FM022100 02006KT P6SM BKN025=



000
FTUS42 KCAE 020500
TAFCAE
TAF
KCAE 020534Z 0206/0306 VRB04KT 5SM BR OVC004
     FM020800 VRB03KT 2SM BR OVC003
      TEMPO 0208/0212 1/2SM FG OVC001
     FM021500 28005KT 5SM BR OVC008
     FM021700 29005KT P6SM OVC015
     FM022100 04005KT P6SM BKN025=



000
FTUS42 KCAE 020300 AAA
TAFCAE
TAF AMD
KCAE 020310Z 0203/0224 VRB03KT 6SM BR OVC008
     FM020800 VRB03KT 2SM BR OVC006
     FM021500 28005KT 5SM BR OVC010
     FM021700 29005KT P6SM OVC015=



000
FTUS42 KCAE 020300 AAA
TAFDNL
TAF AMD
KDNL 020310Z 0203/0224 VRB05KT 3SM BR OVC003
     FM021500 29005KT 5SM BR OVC010
     FM021700 31005KT P6SM OVC015=



000
FTUS42 KCAE 020300 AAA
TAFCUB
TAF AMD
KCUB 020310Z 0203/0224 VRB03KT 6SM BR OVC008
     FM020800 VRB03KT 2SM BR OVC006
     FM021500 28004KT 5SM BR OVC010
     FM021700 29004KT P6SM OVC015=



000
FTUS42 KCAE 020300 AAB
TAFOGB
TAF AMD
KOGB 020310Z 0203/0224 VRB03KT 3SM BR OVC006
     FM020800 VRB03KT 1SM BR OVC003
     FM021500 28006KT 5SM BR OVC010
     FM021700 29006KT P6SM OVC015=



000
FTUS42 KCAE 020300 AAA
TAFAGS
TAF AMD
KAGS 020310Z 0203/0224 VRB03KT 3SM BR OVC005
     FM020800 VRB03KT 1SM BR OVC003
     FM021500 29005KT 5SM BR OVC010
     FM021700 31005KT P6SM OVC015=



000
FTUS42 KCAE 020300 AAA
TAFCUB
TAF AMD
KCUB 020310Z 0203/0224 VRB03KT 6SM BR OVC008
     FM020800 VRB03KT 2SM BR OVC006
     FM021500 28004KT 5SM BR OVC010
     FM021700 29004KT P6SM OVC015=



000
FTUS42 KCAE 020300 AAA
TAFCAE
TAF AMD
KCAE 020310Z 0203/0224 VRB03KT 6SM BR OVC008
     FM020800 VRB03KT 2SM BR OVC006
     FM021500 28005KT 5SM BR OVC010
     FM021700 29005KT P6SM OVC015=



000
FTUS42 KCAE 020300 AAA
TAFAGS
TAF AMD
KAGS 020310Z 0203/0224 VRB03KT 3SM BR OVC005
     FM020800 VRB03KT 1SM BR OVC003
     FM021500 29005KT 5SM BR OVC010
     FM021700 31005KT P6SM OVC015=



000
FTUS42 KCAE 020300 AAA
TAFDNL
TAF AMD
KDNL 020310Z 0203/0224 VRB05KT 3SM BR OVC003
     FM021500 29005KT 5SM BR OVC010
     FM021700 31005KT P6SM OVC015=



000
FTUS42 KCAE 020300 AAB
TAFOGB
TAF AMD
KOGB 020310Z 0203/0224 VRB03KT 3SM BR OVC006
     FM020800 VRB03KT 1SM BR OVC003
     FM021500 28006KT 5SM BR OVC010
     FM021700 29006KT P6SM OVC015=



000
FTUS42 KCAE 020000 AAA
TAFOGB
TAF AMD
KOGB 020059Z 0201/0224 VRB03KT 5SM BR OVC004
     FM020500 VRB03KT 1SM BR OVC003
     FM021600 28006KT 4SM BR BKN008
     FM021700 29008KT P6SM OVC015=



000
FTUS42 KCAE 020000 AAA
TAFOGB
TAF AMD
KOGB 020059Z 0201/0224 VRB03KT 5SM BR OVC004
     FM020500 VRB03KT 1SM BR OVC003
     FM021600 28006KT 4SM BR BKN008
     FM021700 29008KT P6SM OVC015=



000
FTUS42 KCAE 012300
TAFCUB
TAF
KCUB 012321Z 0200/0224 VRB03KT 6SM BR OVC006
     FM020500 VRB03KT 1SM BR OVC003
     FM021600 28005KT 4SM BR BKN008
     FM021700 29006KT P6SM OVC015=



000
FTUS42 KCAE 012300
TAFOGB
TAF
KOGB 012321Z 0200/0224 VRB03KT 3SM -RA BR OVC005
     FM020100 VRB03KT 5SM BR OVC005
     FM020500 VRB03KT 1SM BR OVC003
     FM021600 28006KT 4SM BR BKN008
     FM021700 29008KT P6SM OVC015=



000
FTUS42 KCAE 012300
TAFDNL
TAF
KDNL 012321Z 0200/0224 VRB05KT 2SM BR OVC003
     FM021600 29005KT 4SM BR BKN008
     FM021700 31006KT P6SM OVC015=



000
FTUS42 KCAE 012300
TAFAGS
TAF
KAGS 012321Z 0200/0224 VRB02KT 3SM BR OVC006
     FM020400 VRB03KT 1SM BR OVC003
     FM021600 29005KT 4SM BR BKN008
     FM021700 31006KT P6SM OVC015=



000
FTUS42 KCAE 012300
TAFCAE
TAF
KCAE 012321Z 0200/0224 VRB03KT 6SM BR OVC006
     FM020500 VRB03KT 1SM BR OVC003
     FM021600 28005KT 4SM BR BKN008
     FM021700 29006KT P6SM OVC015=



000
FTUS42 KCAE 012200 AAE
TAFCUB
TAF AMD
KCUB 012212Z 0122/0218 VRB03KT 3SM BR OVC005
     FM021500 26005KT P6SM OVC015=



000
FTUS42 KCAE 012200 AAE
TAFCUB
TAF AMD
KCUB 012212Z 0122/0218 VRB03KT 3SM BR OVC005
     FM021500 26005KT P6SM OVC015=



000
FTUS42 KCAE 012200 AAD
TAFCUB
TAF AMD
KCUB 012207Z 0122/0218 VRB03KT 3SM BR OVC006
     FM021500 26005KT P6SM OVC015=



000
FTUS42 KCAE 012200 AAD
TAFCUB
TAF AMD
KCUB 012207Z 0122/0218 VRB03KT 3SM BR OVC006
     FM021500 26005KT P6SM OVC015=



000
FTUS42 KCAE 012200 AAA
TAFCAE
TAF AMD
KCAE 012206Z 0122/0218 VRB03KT 3SM BR OVC005
     FM021500 26005KT P6SM OVC015=



000
FTUS42 KCAE 012200 AAA
TAFCAE
TAF AMD
KCAE 012206Z 0122/0218 VRB03KT 3SM BR OVC005
     FM021500 26005KT P6SM OVC015=



000
FTUS42 KCAE 012000 AAB
TAFAGS
TAF AMD
KAGS 012039Z 0121/0218 VRB02KT 2SM BR OVC006
     FM021500 26004KT P6SM OVC015=



000
FTUS42 KCAE 012000 AAC
TAFCUB
TAF AMD
KCUB 012039Z 0121/0218 VRB03KT P6SM OVC007
      TEMPO 0121/0122 5SM -RA
     FM020400 VRB03KT 3SM BR OVC006
     FM021500 26005KT P6SM OVC015=



000
FTUS42 KCAE 012000 AAB
TAFOGB
TAF AMD
KOGB 012039Z 0121/0218 VRB04KT P6SM OVC006
     FM020400 VRB03KT 3SM BR OVC006
     FM021500 26004KT P6SM OVC015=



000
FTUS42 KCAE 012000 AAC
TAFDNL
TAF AMD
KDNL 012039Z 0121/0218 VRB05KT 3SM BR OVC004
     FM021500 26004KT P6SM OVC015=



000
FTUS42 KCAE 012000 AAC
TAFCAE
TAF AMD
KCAE 012039Z 0121/0218 VRB04KT P6SM OVC007
      TEMPO 0121/0122 5SM -RA
     FM020400 24003KT 3SM BR OVC006
     FM021500 26005KT P6SM OVC015=



000
FTUS42 KCAE 012000 AAB
TAFOGB
TAF AMD
KOGB 012039Z 0121/0218 VRB04KT P6SM OVC006
     FM020400 VRB03KT 3SM BR OVC006
     FM021500 26004KT P6SM OVC015=



000
FTUS42 KCAE 012000 AAB
TAFAGS
TAF AMD
KAGS 012039Z 0121/0218 VRB02KT 2SM BR OVC006
     FM021500 26004KT P6SM OVC015=



000
FTUS42 KCAE 012000 AAC
TAFCAE
TAF AMD
KCAE 012039Z 0121/0218 VRB04KT P6SM OVC007
      TEMPO 0121/0122 5SM -RA
     FM020400 24003KT 3SM BR OVC006
     FM021500 26005KT P6SM OVC015=



000
FTUS42 KCAE 012000 AAC
TAFCUB
TAF AMD
KCUB 012039Z 0121/0218 VRB03KT P6SM OVC007
      TEMPO 0121/0122 5SM -RA
     FM020400 VRB03KT 3SM BR OVC006
     FM021500 26005KT P6SM OVC015=



000
FTUS42 KCAE 012000 AAC
TAFDNL
TAF AMD
KDNL 012039Z 0121/0218 VRB05KT 3SM BR OVC004
     FM021500 26004KT P6SM OVC015=



000
FTUS42 KCAE 012000 AAB
TAFDNL
TAF AMD
KDNL 012012Z 0120/0218 VRB05KT 3SM BR OVC004
     FM021500 26004KT P6SM OVC015=



000
FTUS42 KCAE 012000 AAB
TAFDNL
TAF AMD
KDNL 012012Z 0120/0218 VRB05KT 3SM BR OVC004
     FM021500 26004KT P6SM OVC015=



000
FTUS42 KCAE 011900 AAB
TAFCUB
TAF AMD
KCUB 011953Z 0120/0218 02004KT P6SM OVC007
      TEMPO 0120/0122 5SM -RA
     FM020400 VRB03KT 3SM BR OVC006
     FM021500 26005KT P6SM OVC015=



000
FTUS42 KCAE 011900 AAB
TAFCAE
TAF AMD
KCAE 011950Z 0120/0218 02006KT P6SM OVC007
      TEMPO 0120/0122 5SM -RA
     FM020400 24003KT 3SM BR OVC006
     FM021500 26005KT P6SM OVC015=



000
FTUS42 KCAE 011800 AAA
TAFCUB
TAF AMD
KCUB 011850Z 0119/0218 02004KT P6SM OVC007
      TEMPO 0119/0120 5SM -RA
     FM020400 VRB03KT 3SM BR OVC006
     FM021500 26005KT P6SM OVC015=



000
FTUS42 KCAE 011800 AAA
TAFCAE
TAF AMD
KCAE 011850Z 0119/0218 02006KT P6SM OVC007
      TEMPO 0119/0120 5SM -RA
     FM020400 24003KT 3SM BR OVC006
     FM021500 26005KT P6SM OVC015=



000
FTUS42 KCAE 011800 AAA
TAFOGB
TAF AMD
KOGB 011850Z 0119/0218 02007KT P6SM OVC006
      TEMPO 0119/0120 5SM -RA
     FM020400 VRB03KT 3SM BR OVC006
     FM021500 26004KT P6SM OVC015=



000
FTUS42 KCAE 011800 AAA
TAFOGB
TAF AMD
KOGB 011850Z 0119/0218 02007KT P6SM OVC006
      TEMPO 0119/0120 5SM -RA
     FM020400 VRB03KT 3SM BR OVC006
     FM021500 26004KT P6SM OVC015=



000
FTUS42 KCAE 011800 AAA
TAFDNL
TAF AMD
KDNL 011850Z 0119/0218 01006KT P6SM OVC006
     FM020400 VRB03KT 3SM BR OVC006
     FM021500 26004KT P6SM OVC015=



000
FTUS42 KCAE 011800 AAA
TAFCUB
TAF AMD
KCUB 011850Z 0119/0218 02004KT P6SM OVC007
      TEMPO 0119/0120 5SM -RA
     FM020400 VRB03KT 3SM BR OVC006
     FM021500 26005KT P6SM OVC015=



000
FTUS42 KCAE 011800 AAA
TAFCAE
TAF AMD
KCAE 011850Z 0119/0218 02006KT P6SM OVC007
      TEMPO 0119/0120 5SM -RA
     FM020400 24003KT 3SM BR OVC006
     FM021500 26005KT P6SM OVC015=



000
FTUS42 KCAE 011800 AAA
TAFAGS
TAF AMD
KAGS 011850Z 0119/0218 02006KT P6SM OVC006
     FM020400 VRB02KT 3SM BR OVC006
     FM021500 26004KT P6SM OVC015=



000
FTUS42 KCAE 011800 AAA
TAFAGS
TAF AMD
KAGS 011850Z 0119/0218 02006KT P6SM OVC006
     FM020400 VRB02KT 3SM BR OVC006
     FM021500 26004KT P6SM OVC015=



000
FTUS42 KCAE 011800 AAA
TAFDNL
TAF AMD
KDNL 011850Z 0119/0218 01006KT P6SM OVC006
     FM020400 VRB03KT 3SM BR OVC006
     FM021500 26004KT P6SM OVC015=



000
FTUS42 KCAE 011700
TAFOGB
TAF
KOGB 011728Z 0118/0218 02007KT 5SM BR OVC006
      TEMPO 0118/0120 3SM -RA
     FM020400 VRB03KT 3SM BR OVC006
     FM021500 26004KT P6SM OVC015=



000
FTUS42 KCAE 011700
TAFDNL
TAF
KDNL 011728Z 0118/0218 01006KT 5SM BR OVC006
     FM020400 VRB03KT 3SM BR OVC006
     FM021500 26004KT P6SM OVC015=



000
FTUS42 KCAE 011700
TAFAGS
TAF
KAGS 011728Z 0118/0218 02006KT 5SM BR OVC006
     FM020400 VRB02KT 3SM BR OVC006
     FM021500 26004KT P6SM OVC015=



000
FTUS42 KCAE 011700
TAFCAE
TAF
KCAE 011728Z 0118/0218 02006KT 5SM BR OVC007
      TEMPO 0118/0120 3SM -RA
     FM020400 24003KT 3SM BR OVC006
     FM021500 26005KT P6SM OVC015=



000
FTUS42 KCAE 011700
TAFCUB
TAF
KCUB 011728Z 0118/0218 02004KT 5SM BR OVC007
      TEMPO 0118/0120 3SM -RA
     FM020400 VRB03KT 3SM BR OVC006
     FM021500 26005KT P6SM OVC015=



000
FTUS42 KCAE 011500 AAA
TAFAGS
TAF AMD
KAGS 011503Z 0115/0212 02006KT 4SM -RA OVC006
     FM020000 26004KT 4SM BR OVC006=



000
FTUS42 KCAE 011500 AAA
TAFOGB
TAF AMD
KOGB 011503Z 0115/0212 02007KT 4SM -RA OVC006
     FM020600 26004KT 4SM BR OVC009=



000
FTUS42 KCAE 011500 AAA
TAFCAE
TAF AMD
KCAE 011503Z 0115/0212 02006KT 4SM -RA OVC007
     FM020400 26004KT 4SM BR OVC009=



000
FTUS42 KCAE 011500 AAA
TAFCUB
TAF AMD
KCUB 011503Z 0115/0212 02004KT 4SM -RA OVC007
     FM020400 VRB03KT 4SM BR OVC009=



000
FTUS42 KCAE 011500 AAA
TAFDNL
TAF AMD
KDNL 011503Z 0115/0212 01006KT 4SM -RA OVC006
     FM020000 26004KT 4SM BR OVC006=



000
FTUS42 KCAE 011500 AAA
TAFCAE
TAF AMD
KCAE 011503Z 0115/0212 02006KT 4SM -RA OVC007
     FM020400 26004KT 4SM BR OVC009=



000
FTUS42 KCAE 011500 AAA
TAFAGS
TAF AMD
KAGS 011503Z 0115/0212 02006KT 4SM -RA OVC006
     FM020000 26004KT 4SM BR OVC006=



000
FTUS42 KCAE 011500 AAA
TAFOGB
TAF AMD
KOGB 011503Z 0115/0212 02007KT 4SM -RA OVC006
     FM020600 26004KT 4SM BR OVC009=



000
FTUS42 KCAE 011500 AAA
TAFCUB
TAF AMD
KCUB 011503Z 0115/0212 02004KT 4SM -RA OVC007
     FM020400 VRB03KT 4SM BR OVC009=



000
FTUS42 KCAE 011500 AAA
TAFDNL
TAF AMD
KDNL 011503Z 0115/0212 01006KT 4SM -RA OVC006
     FM020000 26004KT 4SM BR OVC006=



000
FTUS42 KCAE 011100
TAFDNL
TAF
KDNL 011127Z 0112/0212 01006KT 3SM -RA OVC006
     FM020600 26004KT 4SM BR BKN012=



000
FTUS42 KCAE 011100
TAFOGB
TAF
KOGB 011127Z 0112/0212 02007KT 3SM -RA OVC006
     FM020600 26004KT 4SM BR BKN012=



000
FTUS42 KCAE 011100
TAFCAE
TAF
KCAE 011127Z 0112/0212 02006KT 3SM -RA OVC006
     FM020600 26004KT 4SM BR BKN012=



000
FTUS42 KCAE 011100
TAFCUB
TAF
KCUB 011127Z 0112/0212 02004KT 3SM -RA OVC006
     FM020600 VRB03KT 4SM BR BKN012=



000
FTUS42 KCAE 011100
TAFAGS
TAF
KAGS 011127Z 0112/0212 01006KT 3SM -RA OVC006
     FM020600 26004KT 4SM BR BKN012=



000
FTUS42 KCAE 010900 AAA
TAFDNL
TAF AMD
KDNL 010916Z 0109/0206 04005KT 3SM -RA OVC006
     FM011500 VRB03KT 2SM -RA BR OVC006
     FM020300 26004KT P6SM BKN015=



000
FTUS42 KCAE 010900 AAA
TAFOGB
TAF AMD
KOGB 010916Z 0109/0206 04005KT 4SM -RA OVC012
     FM011200 02005KT 3SM -RA OVC006
     FM011500 VRB03KT 2SM -RA BR OVC006
     FM020300 26004KT P6SM BKN015=



000
FTUS42 KCAE 010900 AAA
TAFCUB
TAF AMD
KCUB 010916Z 0109/0206 04004KT 4SM -RA OVC012
     FM011200 02004KT 3SM -RA OVC006
     FM011500 VRB03KT 2SM -RA BR OVC006
     FM020300 VRB03KT P6SM BKN015=



000
FTUS42 KCAE 010900 AAA
TAFAGS
TAF AMD
KAGS 010916Z 0109/0206 04005KT 3SM -RA OVC006
     FM011500 VRB03KT 2SM -RA BR OVC006
     FM020300 26004KT P6SM BKN015=



000
FTUS42 KCAE 010900 AAA
TAFCAE
TAF AMD
KCAE 010916Z 0109/0206 04005KT 4SM -RA OVC012
     FM011200 02005KT 3SM -RA OVC006
     FM011500 VRB03KT 2SM -RA BR OVC006
     FM020300 26004KT P6SM BKN015=



000
FTUS42 KCAE 010500
TAFCAE
TAF
KCAE 010531Z 0106/0206 06005KT P6SM -RA OVC020
     FM010900 04005KT 6SM -RA OVC012
     FM011200 02005KT 4SM -RA OVC009
     FM011500 VRB03KT 2SM -RA BR OVC006
     FM020300 26004KT P6SM BKN015=



000
FTUS42 KCAE 010500
TAFOGB
TAF
KOGB 010531Z 0106/0206 06005KT P6SM -RA OVC020
     FM010900 04005KT 6SM -RA OVC012
     FM011200 02005KT 4SM -RA OVC009
     FM011500 VRB03KT 2SM -RA BR OVC006
     FM020300 26004KT P6SM BKN015=



000
FTUS42 KCAE 010500
TAFAGS
TAF
KAGS 010531Z 0106/0206 05005KT P6SM -RA OVC020
     FM010900 04005KT 6SM -RA OVC012
     FM011200 02005KT 4SM -RA OVC009
     FM011500 VRB03KT 2SM -RA BR OVC006
     FM020300 26004KT P6SM BKN015=



000
FTUS42 KCAE 010500
TAFDNL
TAF
KDNL 010531Z 0106/0206 05005KT P6SM -RA OVC020
     FM010900 04005KT 6SM -RA OVC012
     FM011200 02005KT 4SM -RA OVC009
     FM011500 VRB03KT 2SM -RA BR OVC006
     FM020300 26004KT P6SM BKN015=



000
FTUS42 KCAE 010500
TAFOGB
TAF
KOGB 010531Z 0106/0206 06005KT P6SM -RA OVC020
     FM010900 04005KT 6SM -RA OVC012
     FM011200 02005KT 4SM -RA OVC009
     FM011500 VRB03KT 2SM -RA BR OVC006
     FM020300 26004KT P6SM BKN015=



000
FTUS42 KCAE 010500
TAFAGS
TAF
KAGS 010531Z 0106/0206 05005KT P6SM -RA OVC020
     FM010900 04005KT 6SM -RA OVC012
     FM011200 02005KT 4SM -RA OVC009
     FM011500 VRB03KT 2SM -RA BR OVC006
     FM020300 26004KT P6SM BKN015=



000
FTUS42 KCAE 010500
TAFDNL
TAF
KDNL 010531Z 0106/0206 05005KT P6SM -RA OVC020
     FM010900 04005KT 6SM -RA OVC012
     FM011200 02005KT 4SM -RA OVC009
     FM011500 VRB03KT 2SM -RA BR OVC006
     FM020300 26004KT P6SM BKN015=



000
FTUS42 KCAE 010500
TAFCUB
TAF
KCUB 010531Z 0106/0206 06004KT P6SM -RA OVC020
     FM010900 04004KT 6SM -RA OVC012
     FM011200 02004KT 4SM -RA OVC009
     FM011500 VRB03KT 2SM -RA BR OVC006
     FM020300 VRB03KT P6SM BKN015=



000
FTUS42 KCAE 010500
TAFCAE
TAF
KCAE 010531Z 0106/0206 06005KT P6SM -RA OVC020
     FM010900 04005KT 6SM -RA OVC012
     FM011200 02005KT 4SM -RA OVC009
     FM011500 VRB03KT 2SM -RA BR OVC006
     FM020300 26004KT P6SM BKN015=



000
FTUS42 KCAE 010500
TAFCUB
TAF
KCUB 010531Z 0106/0206 06004KT P6SM -RA OVC020
     FM010900 04004KT 6SM -RA OVC012
     FM011200 02004KT 4SM -RA OVC009
     FM011500 VRB03KT 2SM -RA BR OVC006
     FM020300 VRB03KT P6SM BKN015=



    US Dept of Commerce
    National Oceanic and Atmospheric Administration
    National Weather Service
    1325 East West Highway
    Silver Spring, MD 20910
    Page Author: NWS Internet Services Team
Disclaimer
Information Quality
Credits
Glossary
Privacy Policy
Freedom of Information Act (FOIA)
About Us
Career Opportunities